Time;durP1;ratioP1;P1;durP2;ratioP2;P2;SDS_P1;SDS_P2;PMS_P1;PMS_P2;Temp;Humidity;BMP_temperature;BMP_pressure;BME280_temperature;BME280_humidity;BME280_pressure;Samples;Min_cycle;Max_cycle;Signal;HPM_P1;HPM_P2
2023/10/23 00:01:44;;;;;;;0.10;0.10;;;12.10;99.90;;;;;;5086725;28;20300;-76
2023/10/23 00:04:10;;;;;;;0.10;0.10;;;12.00;99.90;;;;;;5089271;28;20043;-75
2023/10/23 00:06:35;;;;;;;0.20;0.20;;;12.00;99.90;;;;;;5087475;28;20481;-77
2023/10/23 00:09:02;;;;;;;0.17;0.17;;;12.00;99.90;;;;;;5086746;28;20406;-76
2023/10/23 00:11:30;;;;;;;0.17;0.17;;;12.00;99.90;;;;;;5083682;28;20024;-76
2023/10/23 00:13:56;;;;;;;0.17;0.17;;;;;;;;;;5084263;28;20510;-76
2023/10/23 00:16:22;;;;;;;0.10;0.10;;;11.90;99.90;;;;;;5083115;28;20081;-76
2023/10/23 00:18:49;;;;;;;0.10;0.10;;;11.90;99.90;;;;;;5082371;28;20316;-75
2023/10/23 00:21:16;;;;;;;0.10;0.10;;;11.80;99.90;;;;;;5083723;28;20035;-77
2023/10/23 00:23:42;;;;;;;0.25;0.25;;;11.80;99.90;;;;;;5084326;28;20016;-76
2023/10/23 00:26:08;;;;;;;0.10;0.10;;;11.80;99.90;;;;;;5084908;28;20032;-76
2023/10/23 00:28:34;;;;;;;0.77;0.75;;;11.70;99.90;;;;;;5082807;28;20037;-76
2023/10/23 00:31:01;;;;;;;0.20;0.20;;;11.60;99.90;;;;;;5082569;28;20220;-76
2023/10/23 00:33:29;;;;;;;0.30;0.30;;;11.60;99.90;;;;;;5083618;28;20047;-75
2023/10/23 00:35:55;;;;;;;0.10;0.10;;;11.60;99.90;;;;;;5084160;28;20402;-76
2023/10/23 00:38:21;;;;;;;1.40;1.40;;;11.60;99.90;;;;;;5081901;28;20099;-76
2023/10/23 00:40:46;;;;;;;0.10;0.10;;;11.50;99.90;;;;;;5083767;28;20135;-75
2023/10/23 00:43:19;;;;;;;0.20;0.20;;;11.60;99.90;;;;;;5085421;28;20024;-75
2023/10/23 00:45:54;;;;;;;0.10;0.10;;;11.60;99.90;;;;;;5084499;28;20378;-76
2023/10/23 00:48:21;;;;;;;0.10;0.10;;;11.50;99.90;;;;;;5083997;28;20016;-75
2023/10/23 00:50:49;;;;;;;0.10;0.10;;;11.40;99.90;;;;;;5083614;28;20379;-76
2023/10/23 00:53:19;;;;;;;0.10;0.10;;;11.30;99.90;;;;;;5084735;28;20047;-76
2023/10/23 00:55:46;;;;;;;0.10;0.10;;;11.30;99.90;;;;;;5092492;28;20371;-76
2023/10/23 00:58:13;;;;;;;0.10;0.10;;;11.30;99.90;;;;;;5083073;28;20032;-75
2023/10/23 01:00:40;;;;;;;0.45;0.45;;;11.30;99.90;;;;;;5085401;28;20375;-76
2023/10/23 01:03:09;;;;;;;0.10;0.10;;;11.30;99.90;;;;;;5085153;28;20607;-76
2023/10/23 01:05:35;;;;;;;0.10;0.10;;;11.20;99.90;;;;;;5085325;28;20074;-75
2023/10/23 01:08:01;;;;;;;0.00;0.00;;;11.30;99.90;;;;;;5085298;28;20027;-75
2023/10/23 01:10:27;;;;;;;0.20;0.20;;;11.30;99.90;;;;;;5081842;28;20341;-75
2023/10/23 01:12:54;;;;;;;0.10;0.10;;;11.30;99.90;;;;;;5084329;28;20024;-76
2023/10/23 01:15:20;;;;;;;0.10;0.10;;;11.40;99.90;;;;;;5084731;28;20146;-75
2023/10/23 01:17:46;;;;;;;0.10;0.10;;;11.40;99.90;;;;;;5082833;28;20176;-75
2023/10/23 01:20:14;;;;;;;0.10;0.10;;;11.40;99.90;;;;;;5082866;28;20244;-75
2023/10/23 01:22:39;;;;;;;0.10;0.10;;;11.40;99.90;;;;;;5083533;28;20020;-76
2023/10/23 01:25:13;;;;;;;0.10;0.10;;;11.50;99.90;;;;;;5082933;28;20426;-75
2023/10/23 01:27:39;;;;;;;0.10;0.10;;;11.50;99.90;;;;;;5082889;28;20481;-75
2023/10/23 01:30:06;;;;;;;3.75;3.45;;;11.50;99.90;;;;;;5085620;28;20263;-75
2023/10/23 01:32:32;;;;;;;0.20;0.20;;;11.50;99.90;;;;;;5088760;28;20264;-76
2023/10/23 01:34:58;;;;;;;0.15;0.15;;;11.50;99.90;;;;;;5088604;28;20269;-76
2023/10/23 01:37:24;;;;;;;0.10;0.10;;;11.60;99.90;;;;;;5086403;28;20035;-74
2023/10/23 01:39:50;;;;;;;0.10;0.10;;;11.60;99.90;;;;;;5081148;28;20028;-75
2023/10/23 01:42:15;;;;;;;0.20;0.20;;;11.60;99.90;;;;;;5081778;28;20028;-76
2023/10/23 01:44:41;;;;;;;0.10;0.10;;;11.60;99.90;;;;;;5063497;28;20567;-75
2023/10/23 01:47:07;;;;;;;0.17;0.17;;;11.60;99.90;;;;;;5080875;28;20049;-75
2023/10/23 01:49:32;;;;;;;1.17;1.17;;;11.50;99.90;;;;;;5087969;28;20026;-76
2023/10/23 01:51:59;;;;;;;0.20;0.20;;;11.50;99.90;;;;;;5083901;28;20517;-75
2023/10/23 01:54:26;;;;;;;0.45;0.45;;;11.50;99.90;;;;;;5082207;28;20076;-74
2023/10/23 01:56:51;;;;;;;0.10;0.10;;;11.40;99.90;;;;;;5082146;28;20245;-75
2023/10/23 01:59:17;;;;;;;0.10;0.10;;;9.30;99.90;;;;;;5080862;28;20069;-75
2023/10/23 02:01:44;;;;;;;0.10;0.10;;;11.40;99.90;;;;;;5080697;28;20544;-75
2023/10/23 02:04:10;;;;;;;0.10;0.10;;;11.40;99.90;;;;;;5081297;28;20026;-75
2023/10/23 02:06:36;;;;;;;0.17;0.17;;;11.40;99.90;;;;;;5081768;28;20017;-75
2023/10/23 02:09:02;;;;;;;0.10;0.10;;;11.40;99.90;;;;;;5082411;28;20058;-74
2023/10/23 02:11:28;;;;;;;0.10;0.10;;;11.40;99.90;;;;;;5085767;28;20032;-75
2023/10/23 02:13:57;;;;;;;0.38;0.38;;;11.30;99.90;;;;;;5084417;28;20509;-75
2023/10/23 02:16:23;;;;;;;0.10;0.10;;;11.30;99.90;;;;;;5085574;28;20032;-75
2023/10/23 02:18:49;;;;;;;0.60;0.60;;;11.40;99.90;;;;;;5068464;28;20032;-75
2023/10/23 02:21:15;;;;;;;0.10;0.10;;;11.30;99.90;;;;;;5086658;28;20032;-75
2023/10/23 02:23:41;;;;;;;0.10;0.10;;;11.40;99.90;;;;;;5085010;28;20047;-74
2023/10/23 02:26:06;;;;;;;0.10;0.10;;;11.40;99.90;;;;;;5084023;28;20317;-76
2023/10/23 02:28:32;;;;;;;0.10;0.10;;;11.40;99.90;;;;;;5065405;28;20020;-75
2023/10/23 02:31:01;;;;;;;0.10;0.10;;;11.40;99.90;;;;;;5082723;28;20235;-75
2023/10/23 02:33:27;;;;;;;0.10;0.10;;;11.40;99.90;;;;;;5083916;28;20044;-76
2023/10/23 02:35:53;;;;;;;0.10;0.10;;;11.50;99.90;;;;;;5083098;28;20030;-76
2023/10/23 02:38:18;;;;;;;0.10;0.10;;;11.40;99.90;;;;;;5080365;28;20032;-75
2023/10/23 02:40:54;;;;;;;0.10;0.10;;;11.40;99.90;;;;;;5079660;28;20040;-75
2023/10/23 02:43:20;;;;;;;0.10;0.10;;;11.40;99.90;;;;;;5082004;28;20031;-75
2023/10/23 02:45:46;;;;;;;15.05;13.80;;;11.40;99.90;;;;;;5080398;28;20054;-75
2023/10/23 02:48:13;;;;;;;0.10;0.10;;;11.30;99.90;;;;;;5080714;28;20096;-75
2023/10/23 02:50:39;;;;;;;0.10;0.10;;;11.30;99.90;;;;;;5080780;28;20035;-75
2023/10/23 02:53:06;;;;;;;0.10;0.10;;;11.30;99.90;;;;;;5079723;28;20017;-75
2023/10/23 02:55:32;;;;;;;0.15;0.15;;;11.30;99.90;;;;;;5061957;28;20336;-75
2023/10/23 02:57:58;;;;;;;0.10;0.10;;;11.30;99.90;;;;;;5062930;28;20024;-75
2023/10/23 03:00:24;;;;;;;0.52;0.52;;;11.20;99.90;;;;;;5080409;28;20039;-75
2023/10/23 03:02:50;;;;;;;0.45;0.45;;;11.10;99.90;;;;;;5081577;28;20216;-75
2023/10/23 03:05:16;;;;;;;0.85;0.85;;;11.10;99.90;;;;;;5082249;28;20016;-77
2023/10/23 03:07:43;;;;;;;0.10;0.10;;;11.00;99.90;;;;;;5083760;28;20035;-74
2023/10/23 03:10:09;;;;;;;0.10;0.10;;;11.00;99.90;;;;;;5082722;28;20024;-75
2023/10/23 03:12:38;;;;;;;0.10;0.10;;;11.00;99.90;;;;;;5085592;28;20066;-75
2023/10/23 03:15:04;;;;;;;0.10;0.10;;;11.00;99.90;;;;;;5089952;28;20031;-75
2023/10/23 03:17:30;;;;;;;0.10;0.10;;;11.10;99.90;;;;;;5091808;28;20250;-76
2023/10/23 03:19:56;;;;;;;0.10;0.10;;;11.00;99.90;;;;;;5090242;28;20017;-75
2023/10/23 03:22:22;;;;;;;0.10;0.10;;;11.00;99.90;;;;;;5071122;28;20039;-75
2023/10/23 03:24:48;;;;;;;0.10;0.10;;;10.90;99.90;;;;;;5086320;28;20297;-76
2023/10/23 03:27:14;;;;;;;0.10;0.10;;;10.90;99.90;;;;;;5084757;28;20289;-74
2023/10/23 03:29:43;;;;;;;0.10;0.10;;;10.90;99.90;;;;;;5081005;28;20013;-76
2023/10/23 03:32:12;;;;;;;0.10;0.10;;;10.90;99.90;;;;;;5083497;28;20388;-75
2023/10/23 03:34:38;;;;;;;0.10;0.10;;;11.00;99.90;;;;;;5086307;28;20192;-75
2023/10/23 03:37:03;;;;;;;0.10;0.10;;;11.00;99.90;;;;;;5084748;28;20028;-75
2023/10/23 03:39:30;;;;;;;0.10;0.10;;;11.00;99.90;;;;;;5085238;28;20123;-75
2023/10/23 03:41:56;;;;;;;0.00;0.00;;;11.00;99.90;;;;;;5085514;28;20056;-75
2023/10/23 03:44:22;;;;;;;0.10;0.10;;;11.00;99.90;;;;;;5085099;28;20051;-75
2023/10/23 03:46:47;;;;;;;0.10;0.10;;;11.00;99.90;;;;;;5083007;28;20028;-75
2023/10/23 03:49:13;;;;;;;0.10;0.10;;;;;;;;;;5083455;28;20554;-75
2023/10/23 03:51:39;;;;;;;0.10;0.10;;;11.00;99.90;;;;;;5083507;28;20331;-75
2023/10/23 03:54:05;;;;;;;0.10;0.10;;;11.00;99.90;;;;;;5084125;28;20115;-75
2023/10/23 03:56:31;;;;;;;0.10;0.10;;;11.10;99.90;;;;;;5084185;28;20498;-75
2023/10/23 03:58:57;;;;;;;0.10;0.10;;;11.00;99.90;;;;;;5085761;28;20349;-75
2023/10/23 04:01:22;;;;;;;0.10;0.10;;;11.10;99.90;;;;;;5088144;28;20044;-75
2023/10/23 04:03:48;;;;;;;0.20;0.20;;;11.20;99.90;;;;;;5089639;28;20020;-76
2023/10/23 04:06:14;;;;;;;1.70;1.65;;;11.20;99.90;;;;;;5095261;28;20024;-75
2023/10/23 04:08:42;;;;;;;0.10;0.10;;;11.20;99.90;;;;;;5099848;28;20052;-76
2023/10/23 04:11:08;;;;;;;0.52;0.52;;;11.30;99.90;;;;;;5103958;28;20200;-75
2023/10/23 04:13:35;;;;;;;0.10;0.10;;;11.10;99.90;;;;;;5083208;28;20020;-75
2023/10/23 04:16:04;;;;;;;0.57;0.57;;;11.30;99.90;;;;;;5098093;28;20075;-75
2023/10/23 04:18:29;;;;;;;0.10;0.10;;;11.30;99.90;;;;;;5091225;28;20414;-75
2023/10/23 04:21:24;;;;;;;0.10;0.10;;;11.90;99.90;;;;;;5092504;28;20039;-75
2023/10/23 04:23:50;;;;;;;0.10;0.10;;;;;;;;;;5090675;28;20016;-75
2023/10/23 04:26:17;;;;;;;0.10;0.10;;;11.40;99.90;;;;;;5096771;28;20056;-76
2023/10/23 04:28:44;;;;;;;0.10;0.10;;;11.40;99.90;;;;;;5083664;28;20032;-76
2023/10/23 04:31:11;;;;;;;0.10;0.10;;;9.10;99.90;;;;;;5100522;28;20024;-76
2023/10/23 04:33:38;;;;;;;0.13;0.13;;;11.40;99.90;;;;;;5074976;28;20040;-75
2023/10/23 04:36:06;;;;;;;0.10;0.10;;;11.30;99.90;;;;;;5079818;28;20154;-75
2023/10/23 04:38:32;;;;;;;0.20;0.20;;;11.20;99.90;;;;;;5068388;28;20086;-75
2023/10/23 04:40:58;;;;;;;0.20;0.20;;;11.00;99.90;;;;;;5065110;28;20449;-75
2023/10/23 04:43:23;;;;;;;0.10;0.10;;;11.10;99.90;;;;;;5068244;28;20036;-75
2023/10/23 04:45:49;;;;;;;0.10;0.10;;;11.10;99.90;;;;;;5067612;28;20317;-75
2023/10/23 04:48:15;;;;;;;0.10;0.10;;;11.00;99.90;;;;;;5073372;28;20071;-76
2023/10/23 04:50:41;;;;;;;0.10;0.10;;;11.00;99.90;;;;;;5071769;28;20038;-76
2023/10/23 04:53:07;;;;;;;0.10;0.10;;;11.00;99.90;;;;;;5070450;28;20024;-75
2023/10/23 04:55:40;;;;;;;0.10;0.10;;;11.00;99.90;;;;;;5072617;28;20033;-76
2023/10/23 04:58:07;;;;;;;0.10;0.10;;;10.90;99.90;;;;;;5068993;28;20016;-76
2023/10/23 05:00:38;;;;;;;0.10;0.10;;;10.90;99.90;;;;;;5051064;28;20340;-76
2023/10/23 05:03:04;;;;;;;0.10;0.10;;;10.80;99.90;;;;;;5065649;28;20506;-75
2023/10/23 05:05:32;;;;;;;0.10;0.10;;;10.50;99.90;;;;;;5068210;28;20104;-75
2023/10/23 05:07:58;;;;;;;0.10;0.10;;;10.80;99.90;;;;;;5067104;28;20052;-75
2023/10/23 05:10:24;;;;;;;0.10;0.10;;;10.80;99.90;;;;;;5049016;28;20024;-75
2023/10/23 05:12:50;;;;;;;0.10;0.10;;;10.80;99.90;;;;;;5066886;28;20021;-76
2023/10/23 05:15:18;;;;;;;0.20;0.20;;;10.70;99.90;;;;;;5070263;28;20024;-75
2023/10/23 05:17:44;;;;;;;0.10;0.10;;;10.70;99.90;;;;;;5054076;28;20116;-76
2023/10/23 05:20:10;;;;;;;0.10;0.10;;;10.70;99.90;;;;;;5071447;28;20048;-75
2023/10/23 05:22:36;;;;;;;1.02;0.95;;;10.70;99.90;;;;;;5050774;28;20242;-75
2023/10/23 05:25:02;;;;;;;0.10;0.10;;;10.60;99.90;;;;;;5067618;28;20090;-75
2023/10/23 05:27:28;;;;;;;0.10;0.10;;;10.70;99.90;;;;;;5063229;28;20029;-75
2023/10/23 05:29:54;;;;;;;0.10;0.10;;;10.70;99.90;;;;;;5061847;28;20090;-76
2023/10/23 05:32:21;;;;;;;0.77;0.77;;;11.60;99.90;;;;;;5067175;28;20342;-74
2023/10/23 05:34:47;;;;;;;0.10;0.10;;;10.70;99.90;;;;;;5083779;28;20081;-75
2023/10/23 05:37:13;;;;;;;0.10;0.10;;;10.70;99.90;;;;;;5083025;28;20016;-75
2023/10/23 05:39:40;;;;;;;0.10;0.10;;;10.70;99.90;;;;;;5082420;28;20020;-75
2023/10/23 05:42:07;;;;;;;0.20;0.20;;;10.70;99.90;;;;;;5084889;28;20047;-75
2023/10/23 05:44:33;;;;;;;0.10;0.10;;;10.70;99.90;;;;;;5087425;28;20599;-76
2023/10/23 05:46:58;;;;;;;0.10;0.10;;;10.80;99.90;;;;;;5088391;28;20224;-75
2023/10/23 05:49:24;;;;;;;0.10;0.10;;;10.80;99.90;;;;;;5088408;28;20020;-75
2023/10/23 05:51:50;;;;;;;0.10;0.10;;;10.80;99.90;;;;;;5090567;28;20035;-76
2023/10/23 05:54:16;;;;;;;0.10;0.10;;;10.80;99.90;;;;;;5072716;28;20031;-74
2023/10/23 05:57:06;;;;;;;0.10;0.10;;;10.80;99.90;;;;;;5091886;28;20020;-76
2023/10/23 05:59:33;;;;;;;0.10;0.10;;;10.80;99.90;;;;;;5083324;28;20330;-75
2023/10/23 06:01:59;;;;;;;0.10;0.10;;;10.80;99.90;;;;;;5088588;28;20113;-75
2023/10/23 06:04:27;;;;;;;0.10;0.10;;;10.80;99.90;;;;;;5095576;28;20016;-75
2023/10/23 06:07:04;;;;;;;0.10;0.10;;;10.80;99.90;;;;;;5083234;28;20024;-76
2023/10/23 06:09:29;;;;;;;0.10;0.10;;;10.90;99.90;;;;;;5100370;28;20024;-76
2023/10/23 06:11:57;;;;;;;0.10;0.10;;;10.90;99.90;;;;;;5098933;28;20072;-76
2023/10/23 06:14:23;;;;;;;0.10;0.10;;;10.90;99.90;;;;;;5063309;28;20032;-76
2023/10/23 06:16:48;;;;;;;0.17;0.17;;;11.00;99.90;;;;;;5093944;28;20225;-76
2023/10/23 06:19:15;;;;;;;0.10;0.10;;;11.10;99.90;;;;;;5089543;28;20031;-75
2023/10/23 06:21:43;;;;;;;0.10;0.10;;;11.00;99.90;;;;;;5089415;28;20032;-75
2023/10/23 06:24:09;;;;;;;2.90;2.60;;;11.20;99.90;;;;;;5068671;28;20477;-75
2023/10/23 06:26:35;;;;;;;0.10;0.10;;;11.30;99.90;;;;;;5063826;28;20024;-76
2023/10/23 06:29:01;;;;;;;0.10;0.10;;;11.50;99.90;;;;;;5062576;28;20323;-75
2023/10/23 06:31:26;;;;;;;0.20;0.20;;;11.60;99.90;;;;;;5068900;28;20016;-75
2023/10/23 06:33:55;;;;;;;0.20;0.20;;;11.80;99.90;;;;;;5086796;28;20083;-75
2023/10/23 06:36:20;;;;;;;0.90;0.90;;;11.80;99.90;;;;;;5060059;28;20027;-75
2023/10/23 06:38:46;;;;;;;0.10;0.10;;;12.00;99.90;;;;;;5088948;28;20249;-75
2023/10/23 06:41:12;;;;;;;0.38;0.38;;;10.70;99.90;;;;;;5066839;28;20115;-77
2023/10/23 06:43:38;;;;;;;0.10;0.10;;;12.40;99.90;;;;;;5087482;28;20028;-75
2023/10/23 06:46:03;;;;;;;1.00;1.00;;;12.20;99.90;;;;;;5085163;28;20024;-75
2023/10/23 06:48:30;;;;;;;0.10;0.10;;;12.00;99.90;;;;;;5083641;28;20020;-76
2023/10/23 06:50:56;;;;;;;3.72;3.53;;;12.30;99.90;;;;;;5066133;28;20036;-75
2023/10/23 06:53:22;;;;;;;0.10;0.10;;;12.40;99.90;;;;;;5087654;28;20035;-75
2023/10/23 06:55:49;;;;;;;0.10;0.10;;;12.50;99.90;;;;;;5065160;28;20497;-75
2023/10/23 06:58:22;;;;;;;0.15;0.15;;;12.50;99.90;;;;;;5080107;28;20048;-75
2023/10/23 07:00:48;;;;;;;0.10;0.10;;;12.60;99.90;;;;;;5081276;28;20433;-75
2023/10/23 07:03:14;;;;;;;0.20;0.20;;;12.70;99.90;;;;;;5079903;28;20024;-76
2023/10/23 07:05:41;;;;;;;3.42;3.22;;;12.70;99.90;;;;;;5079759;28;20020;-75
2023/10/23 07:08:07;;;;;;;0.20;0.20;;;12.80;99.90;;;;;;5081697;28;20023;-75
2023/10/23 07:10:33;;;;;;;0.20;0.20;;;12.90;99.90;;;;;;5082042;28;20085;-79
2023/10/23 07:12:59;;;;;;;0.15;0.15;;;13.00;99.90;;;;;;5081365;28;20696;-78
2023/10/23 07:15:25;;;;;;;0.20;0.20;;;13.10;99.90;;;;;;5081588;28;20027;-78
2023/10/23 07:17:51;;;;;;;0.20;0.20;;;13.20;99.90;;;;;;5080681;28;20081;-76
2023/10/23 07:20:17;;;;;;;0.40;0.40;;;13.30;99.90;;;;;;5080419;28;20108;-76
2023/10/23 07:22:45;;;;;;;5.40;3.10;;;13.50;99.90;;;;;;5080655;28;20051;-75
2023/10/23 07:25:11;;;;;;;0.10;0.10;;;13.50;99.90;;;;;;5080660;28;20078;-79
2023/10/23 07:27:39;;;;;;;0.10;0.10;;;13.60;99.90;;;;;;5080442;28;20036;-75
2023/10/23 07:30:06;;;;;;;0.20;0.20;;;13.60;99.90;;;;;;5080294;28;20024;-75
2023/10/23 07:32:34;;;;;;;0.13;0.13;;;13.70;99.90;;;;;;5080228;28;20055;-76
2023/10/23 07:35:01;;;;;;;0.20;0.20;;;13.60;99.90;;;;;;5065018;28;20024;-75
2023/10/23 07:37:27;;;;;;;0.47;0.47;;;13.80;99.90;;;;;;5082370;28;20027;-75
2023/10/23 07:39:53;;;;;;;0.65;0.65;;;14.00;99.90;;;;;;5061496;28;20189;-76
2023/10/23 07:42:19;;;;;;;2.38;2.28;;;14.10;99.90;;;;;;5080117;28;20628;-75
2023/10/23 07:44:45;;;;;;;0.32;0.32;;;14.20;99.90;;;;;;5061463;28;20270;-76
2023/10/23 07:47:11;;;;;;;0.10;0.10;;;14.30;99.90;;;;;;5062153;28;20095;-79
2023/10/23 07:49:37;;;;;;;0.22;0.22;;;14.50;99.90;;;;;;5080344;28;20293;-75
2023/10/23 07:52:03;;;;;;;0.20;0.20;;;14.60;99.90;;;;;;5080219;28;20089;-85
2023/10/23 07:54:31;;;;;;;0.57;0.57;;;14.80;99.90;;;;;;5080263;28;20036;-77
2023/10/23 07:56:57;;;;;;;1.02;0.82;;;15.00;99.90;;;;;;5080238;28;20096;-76
2023/10/23 07:59:23;;;;;;;0.52;0.52;;;15.10;99.90;;;;;;5080242;28;20304;-75
2023/10/23 08:01:52;;;;;;;0.10;0.10;;;15.10;99.90;;;;;;5080305;28;20042;-76
2023/10/23 08:04:18;;;;;;;0.82;0.82;;;15.30;99.90;;;;;;5080076;28;20024;-77
2023/10/23 08:06:44;;;;;;;0.75;0.75;;;15.40;99.90;;;;;;5061776;28;20059;-76
2023/10/23 08:09:10;;;;;;;3.92;2.17;;;15.50;99.90;;;;;;5080019;28;20099;-78
2023/10/23 08:11:36;;;;;;;0.10;0.10;;;15.80;99.90;;;;;;5079951;28;20021;-81
2023/10/23 08:14:02;;;;;;;0.10;0.10;;;16.00;99.90;;;;;;5079764;28;20605;-80
2023/10/23 08:16:28;;;;;;;0.10;0.10;;;16.10;99.90;;;;;;5079962;28;20017;-76
2023/10/23 08:18:55;;;;;;;2.38;2.17;;;16.10;99.90;;;;;;5079621;28;20020;-76
2023/10/23 08:21:22;;;;;;;1.35;1.30;;;16.30;99.90;;;;;;5080189;28;20316;-76
2023/10/23 08:23:56;;;;;;;0.10;0.10;;;16.50;99.90;;;;;;5080994;28;20027;-77
2023/10/23 08:26:22;;;;;;;;;;;16.80;99.90;;;;;;5081025;28;20024;-77
2023/10/23 08:28:48;;;;;;;0.80;0.80;;;16.90;99.90;;;;;;5080493;28;20007;-85
2023/10/23 08:31:14;;;;;;;0.20;0.20;;;16.90;99.90;;;;;;5080206;28;20081;-76
2023/10/23 08:33:40;;;;;;;0.10;0.10;;;16.60;99.90;;;;;;5079544;28;20136;-79
2023/10/23 08:36:06;;;;;;;1.10;1.10;;;16.90;99.90;;;;;;5079214;28;20030;-82
2023/10/23 08:38:33;;;;;;;0.52;0.52;;;17.20;99.90;;;;;;5079206;28;20169;-78
2023/10/23 08:41:01;;;;;;;0.10;0.10;;;17.30;99.90;;;;;;5079712;28;20350;-84
2023/10/23 08:43:27;;;;;;;0.10;0.10;;;17.30;99.90;;;;;;5078884;28;20034;-78
2023/10/23 08:45:54;;;;;;;2.03;1.40;;;17.50;99.90;;;;;;5078918;28;20659;-78
2023/10/23 08:48:21;;;;;;;0.20;0.20;;;17.60;99.90;;;;;;5060849;28;20324;-82
2023/10/23 08:50:48;;;;;;;0.20;0.20;;;17.80;99.90;;;;;;5079485;28;20020;-77
2023/10/23 08:53:15;;;;;;;0.75;0.75;;;18.00;99.90;;;;;;5061274;28;20654;-80
2023/10/23 08:55:42;;;;;;;0.10;0.10;;;18.10;99.90;;;;;;5080449;28;20533;-77
2023/10/23 08:58:11;;;;;;;0.10;0.10;;;18.30;99.90;;;;;;5082448;28;20109;-82
2023/10/23 09:00:36;;;;;;;0.10;0.10;;;18.50;99.90;;;;;;5084484;28;20343;-77
2023/10/23 09:03:05;;;;;;;0.40;0.40;;;18.60;99.90;;;;;;5083687;28;20529;-76
2023/10/23 09:05:30;;;;;;;0.10;0.10;;;18.80;99.90;;;;;;5081894;28;20301;-76
2023/10/23 09:07:56;;;;;;;0.15;0.15;;;18.90;99.90;;;;;;5079965;28;20134;-75
2023/10/23 09:10:22;;;;;;;0.10;0.10;;;19.00;99.90;;;;;;5061224;28;20028;-76
2023/10/23 09:12:58;;;;;;;0.10;0.10;;;19.10;99.90;;;;;;5079571;28;20513;-81
2023/10/23 09:15:24;;;;;;;3.05;2.92;;;19.00;99.90;;;;;;5078822;28;20197;-75
2023/10/23 09:17:51;;;;;;;0.25;0.25;;;19.00;99.90;;;;;;5079934;28;20501;-76
2023/10/23 09:20:18;;;;;;;0.10;0.10;;;19.10;99.90;;;;;;5078708;28;20112;-76
2023/10/23 09:22:47;;;;;;;0.10;0.10;;;19.30;99.90;;;;;;5060030;28;20028;-79
2023/10/23 09:25:17;;;;;;;0.10;0.10;;;19.30;99.90;;;;;;5078335;28;20016;-76
2023/10/23 09:27:44;;;;;;;0.10;0.10;;;19.80;99.90;;;;;;5078360;28;20139;-75
2023/10/23 09:30:10;;;;;;;0.10;0.10;;;19.60;99.90;;;;;;5077983;28;20425;-75
2023/10/23 09:32:37;;;;;;;0.10;0.10;;;20.10;99.90;;;;;;5059729;28;20101;-76
2023/10/23 09:35:04;;;;;;;0.10;0.10;;;19.70;99.90;;;;;;5078050;28;20056;-75
2023/10/23 09:37:30;;;;;;;0.10;0.10;;;20.20;99.90;;;;;;5078494;28;20020;-75
2023/10/23 09:40:08;;;;;;;0.30;0.30;;;19.70;99.90;;;;;;5077958;28;20025;-83
2023/10/23 09:42:34;;;;;;;0.10;0.10;;;20.60;99.90;;;;;;5078355;28;20058;-76
2023/10/23 09:45:02;;;;;;;0.10;0.10;;;19.70;99.90;;;;;;5078048;28;20063;-76
2023/10/23 09:47:32;;;;;;;0.10;0.10;;;19.90;99.90;;;;;;5078195;28;20772;-76
2023/10/23 09:49:59;;;;;;;0.28;0.28;;;20.00;99.90;;;;;;5059926;28;20107;-77
2023/10/23 09:52:26;;;;;;;0.10;0.10;;;20.20;99.90;;;;;;5077585;28;20309;-76
2023/10/23 09:55:07;;;;;;;3.50;3.20;;;20.20;99.90;;;;;;5077723;28;20024;-78
2023/10/23 09:57:38;;;;;;;0.80;0.47;;;20.30;99.90;;;;;;5077744;28;20449;-76
2023/10/23 10:00:15;;;;;;;0.20;0.20;;;20.30;99.90;;;;;;5077448;28;20032;-81
2023/10/23 10:02:58;;;;;;;0.10;0.10;;;20.40;99.90;;;;;;5077655;28;20024;-76
2023/10/23 10:05:48;;;;;;;0.25;0.25;;;20.50;99.90;;;;;;5077652;28;20432;-77
2023/10/23 10:08:16;;;;;;;0.28;0.28;;;20.70;99.90;;;;;;5077541;28;20047;-80
2023/10/23 10:10:43;;;;;;;0.10;0.10;;;20.90;99.90;;;;;;5077869;28;20110;-75
2023/10/23 10:13:10;;;;;;;1.00;1.00;;;21.20;99.90;;;;;;5077539;28;20020;-76
2023/10/23 10:15:38;;;;;;;0.10;0.10;;;21.30;99.90;;;;;;5059475;28;20578;-76
2023/10/23 10:18:03;;;;;;;0.65;0.63;;;21.10;99.90;;;;;;5077606;28;20224;-78
2023/10/23 10:20:30;;;;;;;0.10;0.10;;;20.80;99.90;;;;;;5077413;28;20689;-76
2023/10/23 10:23:13;;;;;;;0.20;0.20;;;20.60;99.90;;;;;;5077656;28;20020;-75
2023/10/23 10:25:41;;;;;;;0.38;0.22;;;20.40;99.90;;;;;;5059355;28;20031;-77
2023/10/23 10:28:08;;;;;;;0.10;0.10;;;20.50;99.90;;;;;;5058981;28;20020;-81
2023/10/23 10:30:47;;;;;;;3.60;2.05;;;20.70;99.90;;;;;;5077451;28;20024;-75
2023/10/23 10:33:19;;;;;;;0.10;0.10;;;20.90;99.90;;;;;;5077463;28;20055;-77
2023/10/23 10:35:56;;;;;;;0.10;0.10;;;21.10;99.90;;;;;;5077191;28;20079;-78
2023/10/23 10:38:25;;;;;;;0.63;0.63;;;21.50;99.90;;;;;;5059621;28;20107;-75
2023/10/23 10:41:00;;;;;;;0.63;0.63;;;20.50;99.90;;;;;;5058716;28;20301;-76
2023/10/23 10:43:40;;;;;;;0.50;0.50;;;21.70;99.90;;;;;;5059208;28;20489;-75
2023/10/23 10:46:18;;;;;;;0.10;0.10;;;21.80;99.90;;;;;;5076960;28;20099;-77
2023/10/23 10:48:46;;;;;;;0.10;0.10;;;22.10;99.90;;;;;;5077113;28;20169;-77
2023/10/23 10:51:31;;;;;;;0.10;0.10;;;22.30;99.90;;;;;;5077015;28;20012;-77
2023/10/23 10:54:03;;;;;;;0.10;0.10;;;22.50;99.90;;;;;;5076701;28;20224;-76
2023/10/23 10:56:32;;;;;;;0.75;0.50;;;22.60;99.90;;;;;;5076707;28;20020;-77
2023/10/23 10:59:03;;;;;;;0.10;0.10;;;22.80;99.90;;;;;;5076721;28;20016;-76
2023/10/23 11:01:30;;;;;;;0.10;0.10;;;23.10;99.90;;;;;;5077065;28;20111;-76
2023/10/23 11:03:55;;;;;;;0.10;0.10;;;23.10;99.90;;;;;;5076886;28;20023;-79
2023/10/23 11:06:21;;;;;;;0.10;0.10;;;23.40;99.90;;;;;;5059173;28;20024;-77
2023/10/23 11:08:47;;;;;;;0.20;0.20;;;23.20;99.90;;;;;;5058524;28;20025;-75
2023/10/23 11:11:13;;;;;;;0.10;0.10;;;23.10;99.90;;;;;;5076991;28;20066;-76
2023/10/23 11:13:40;;;;;;;3.30;2.20;;;23.20;99.90;;;;;;5076986;28;20016;-74
2023/10/23 11:16:06;;;;;;;0.13;0.13;;;23.40;99.90;;;;;;5077027;28;20050;-75
2023/10/23 11:18:32;;;;;;;0.10;0.10;;;23.70;99.30;;;;;;5076987;28;20095;-77
2023/10/23 11:21:00;;;;;;;0.10;0.10;;;23.50;99.60;;;;;;5076311;28;20265;-75
2023/10/23 11:23:30;;;;;;;1.92;1.88;;;23.50;99.40;;;;;;5076726;28;20021;-75
2023/10/23 11:25:56;;;;;;;1.27;1.17;;;23.60;98.70;;;;;;5076575;28;20091;-76
2023/10/23 11:28:23;;;;;;;0.00;0.00;;;23.80;98.20;;;;;;5077046;28;20024;-77
2023/10/23 11:30:54;;;;;;;0.20;0.20;;;23.80;97.20;;;;;;5076670;28;20047;-74
2023/10/23 11:33:19;;;;;;;0.30;0.30;;;23.90;96.90;;;;;;5076379;28;20048;-75
2023/10/23 11:35:45;;;;;;;0.00;0.00;;;24.10;97.20;;;;;;5076707;28;20426;-80
2023/10/23 11:38:15;;;;;;;1.08;0.95;;;24.30;96.60;;;;;;5076564;28;20506;-75
2023/10/23 11:40:42;;;;;;;0.00;0.00;;;24.50;96.80;;;;;;5058526;28;20354;-77
2023/10/23 11:43:16;;;;;;;0.13;0.13;;;24.40;94.70;;;;;;5058865;28;20274;-75
2023/10/23 11:45:43;;;;;;;0.20;0.20;;;24.60;93.60;;;;;;5060013;28;20016;-75
2023/10/23 11:48:12;;;;;;;0.10;0.10;;;24.50;93.50;;;;;;5076462;28;20340;-75
2023/10/23 11:50:39;;;;;;;0.10;0.10;;;24.70;93.30;;;;;;5076496;28;20548;-75
2023/10/23 11:53:06;;;;;;;0.10;0.10;;;;;;;;;;5076589;28;20036;-75
2023/10/23 11:55:33;;;;;;;0.30;0.30;;;24.80;91.50;;;;;;5078743;28;20020;-76
2023/10/23 11:57:59;;;;;;;0.00;0.00;;;24.90;91.70;;;;;;5061535;28;20361;-75
2023/10/23 12:00:25;;;;;;;0.10;0.10;;;24.80;91.50;;;;;;5079854;28;20036;-78
2023/10/23 12:02:51;;;;;;;1.67;1.58;;;22.80;90.80;;;;;;5079589;28;20027;-74
2023/10/23 12:05:18;;;;;;;0.10;0.10;;;24.90;91.40;;;;;;5079821;28;20377;-75
2023/10/23 12:07:53;;;;;;;0.00;0.00;;;25.00;91.10;;;;;;5079883;28;20169;-80
2023/10/23 12:10:20;;;;;;;0.00;0.00;;;25.20;91.20;;;;;;5079992;28;20111;-76
2023/10/23 12:12:47;;;;;;;0.10;0.10;;;25.10;91.00;;;;;;5061586;28;20323;-75
2023/10/23 12:15:14;;;;;;;0.03;0.03;;;25.00;90.30;;;;;;5080015;28;20098;-75
2023/10/23 12:17:43;;;;;;;0.00;0.00;;;25.00;90.20;;;;;;5080472;28;20545;-76
2023/10/23 12:20:11;;;;;;;0.45;0.45;;;25.00;90.30;;;;;;5079977;28;20024;-75
2023/10/23 12:22:44;;;;;;;0.43;0.43;;;24.90;90.30;;;;;;5079332;28;20526;-75
2023/10/23 12:25:12;;;;;;;0.00;0.00;;;25.30;88.80;;;;;;5061096;28;20072;-75
2023/10/23 12:27:39;;;;;;;0.00;0.00;;;25.20;89.30;;;;;;5079336;28;20345;-75
2023/10/23 12:30:06;;;;;;;0.00;0.00;;;25.70;88.90;;;;;;5079609;28;20065;-76
2023/10/23 12:32:34;;;;;;;0.10;0.10;;;25.30;88.90;;;;;;5079172;28;20781;-78
2023/10/23 12:35:03;;;;;;;0.10;0.10;;;;;;;;;;5079208;28;20020;-75
2023/10/23 12:37:30;;;;;;;0.88;0.80;;;25.40;88.70;;;;;;5079078;28;20077;-77
2023/10/23 12:39:58;;;;;;;0.10;0.10;;;25.50;86.00;;;;;;5060565;28;20020;-75
2023/10/23 12:42:23;;;;;;;0.00;0.00;;;25.50;85.90;;;;;;5079175;28;20027;-75
2023/10/23 12:44:50;;;;;;;0.00;0.00;;;25.40;86.60;;;;;;5079131;28;20474;-75
2023/10/23 12:47:17;;;;;;;0.00;0.00;;;25.40;86.60;;;;;;5079019;28;20038;-75
2023/10/23 12:49:44;;;;;;;0.00;0.00;;;25.70;86.60;;;;;;5043762;28;20391;-74